Hovedside
METAR-TAF:

METAR-TAF

Lufthavner :

Stockholm-Skavsta, Sverige

Skavsta lufthavn

breddegrad: 58-47N, lengdegrad: 016-55E, høyde over havet: 43 m

Gjeldene værobservasjon

Denne rapporten ble laget for 19 minutter siden, klokken 07:20 UTC
Vind 9 kt fra Vest-nordvest, skiftende mellom Vest og Nord-nordvest
Temperatur 12°C
Luftfuktighet 58%
Trykk 1009 hPa
Sikt 10 km eller mer
ingen skyer under 1500 m og ingen bygeskyer

METAR: ESKN 210720Z 30009KT 270V340 CAVOK 12/04 Q1009

Tid: 09:39 (07:39 UTC)

Varsel

Denne rapporten ble laget for 2 timer og 9 minutter siden, klokken 05:30 UTC
Varsel gyldig fra 21. klokken 06 UTC til 22. klokken 06 UTC
Vind 8 kt fra Vest-nordvest
Sikt 10 km eller mer
ingen skyer under 1500 m og ingen bygeskyer

TAF: ESKN 210530Z 2106/2206 30008KT CAVOK

Værobservasjoner og værvarsel for over 4000 flyplasser (METAR- og TAF-rapporter).

Tilgjengelige stasjoner er representert av de røde og gule prikkene på kartet.

Hold musepekeren over prikken for å se navnet på stasjonen.

Klikk så for å se værobservasjoner og -varsler.

For å forandre kartet kan du klikke på den grønne knappen med svart kryss for å zoome inn, på den grønne knappen med strek for å zoome ut, eller på de grønne pilene for å se tilstøtende kart.


METAR-TAF: